sensor_id;sensor_type;location;lat;lon;timestamp;temperature;humidity
37788;DHT22;23627;53.302;-6.362;2023-07-09T00:02:24;16.80;99.90
37788;DHT22;23627;53.302;-6.362;2023-07-09T00:04:50;16.80;99.90
37788;DHT22;23627;53.302;-6.362;2023-07-09T00:09:53;16.80;99.90
37788;DHT22;23627;53.302;-6.362;2023-07-09T00:12:19;16.80;99.90
37788;DHT22;23627;53.302;-6.362;2023-07-09T00:14:45;16.90;99.90
37788;DHT22;23627;53.302;-6.362;2023-07-09T00:17:15;16.90;99.90
37788;DHT22;23627;53.302;-6.362;2023-07-09T00:19:43;16.90;99.90
37788;DHT22;23627;53.302;-6.362;2023-07-09T00:22:15;16.90;99.90
37788;DHT22;23627;53.302;-6.362;2023-07-09T00:24:43;16.80;99.90
37788;DHT22;23627;53.302;-6.362;2023-07-09T00:27:11;16.80;99.90
37788;DHT22;23627;53.302;-6.362;2023-07-09T00:29:37;16.90;99.90
37788;DHT22;23627;53.302;-6.362;2023-07-09T00:32:04;16.90;99.90
37788;DHT22;23627;53.302;-6.362;2023-07-09T00:34:30;16.90;99.90
37788;DHT22;23627;53.302;-6.362;2023-07-09T00:36:56;16.90;99.90
37788;DHT22;23627;53.302;-6.362;2023-07-09T00:39:22;16.90;99.90
37788;DHT22;23627;53.302;-6.362;2023-07-09T00:41:50;16.90;99.90
37788;DHT22;23627;53.302;-6.362;2023-07-09T00:44:25;16.80;99.90
37788;DHT22;23627;53.302;-6.362;2023-07-09T00:49:40;16.80;99.90
37788;DHT22;23627;53.302;-6.362;2023-07-09T00:52:31;16.70;99.90
37788;DHT22;23627;53.302;-6.362;2023-07-09T00:55:07;16.70;99.90
37788;DHT22;23627;53.302;-6.362;2023-07-09T00:57:36;16.70;99.90
37788;DHT22;23627;53.302;-6.362;2023-07-09T01:00:08;16.60;99.90
37788;DHT22;23627;53.302;-6.362;2023-07-09T01:02:37;16.60;99.90
37788;DHT22;23627;53.302;-6.362;2023-07-09T01:05:03;16.60;99.90
37788;DHT22;23627;53.302;-6.362;2023-07-09T01:07:30;16.50;99.90
37788;DHT22;23627;53.302;-6.362;2023-07-09T01:09:56;16.60;99.90
37788;DHT22;23627;53.302;-6.362;2023-07-09T01:12:22;16.50;99.90
37788;DHT22;23627;53.302;-6.362;2023-07-09T01:14:52;16.50;99.90
37788;DHT22;23627;53.302;-6.362;2023-07-09T01:17:19;16.50;99.90
37788;DHT22;23627;53.302;-6.362;2023-07-09T01:19:49;16.40;99.90
37788;DHT22;23627;53.302;-6.362;2023-07-09T01:22:18;16.50;99.90
37788;DHT22;23627;53.302;-6.362;2023-07-09T01:24:49;16.40;99.90
37788;DHT22;23627;53.302;-6.362;2023-07-09T01:30:39;16.30;99.90
37788;DHT22;23627;53.302;-6.362;2023-07-09T01:33:05;16.30;99.90
37788;DHT22;23627;53.302;-6.362;2023-07-09T01:35:34;16.30;99.90
37788;DHT22;23627;53.302;-6.362;2023-07-09T01:38:00;16.20;99.90
37788;DHT22;23627;53.302;-6.362;2023-07-09T01:40:28;16.20;99.90
37788;DHT22;23627;53.302;-6.362;2023-07-09T01:42:55;16.10;99.90
37788;DHT22;23627;53.302;-6.362;2023-07-09T01:45:24;16.10;99.90
37788;DHT22;23627;53.302;-6.362;2023-07-09T01:47:49;16.10;99.90
37788;DHT22;23627;53.302;-6.362;2023-07-09T01:50:15;16.10;99.90
37788;DHT22;23627;53.302;-6.362;2023-07-09T01:52:43;16.10;99.90
37788;DHT22;23627;53.302;-6.362;2023-07-09T01:55:12;16.10;99.90
37788;DHT22;23627;53.302;-6.362;2023-07-09T01:57:38;16.10;99.90
37788;DHT22;23627;53.302;-6.362;2023-07-09T02:00:11;16.10;99.90
37788;DHT22;23627;53.302;-6.362;2023-07-09T02:02:43;16.10;99.90
37788;DHT22;23627;53.302;-6.362;2023-07-09T02:05:10;16.00;99.90
37788;DHT22;23627;53.302;-6.362;2023-07-09T02:07:38;16.00;99.90
37788;DHT22;23627;53.302;-6.362;2023-07-09T02:10:04;16.00;99.90
37788;DHT22;23627;53.302;-6.362;2023-07-09T02:12:30;16.00;99.90
37788;DHT22;23627;53.302;-6.362;2023-07-09T02:14:56;16.00;99.90
37788;DHT22;23627;53.302;-6.362;2023-07-09T02:17:21;15.90;99.90
37788;DHT22;23627;53.302;-6.362;2023-07-09T02:19:47;15.90;99.90
37788;DHT22;23627;53.302;-6.362;2023-07-09T02:22:13;15.90;99.90
37788;DHT22;23627;53.302;-6.362;2023-07-09T02:24:39;15.90;99.90
37788;DHT22;23627;53.302;-6.362;2023-07-09T02:27:07;15.80;99.90
37788;DHT22;23627;53.302;-6.362;2023-07-09T02:29:33;15.80;99.90
37788;DHT22;23627;53.302;-6.362;2023-07-09T02:32:00;15.80;99.90
37788;DHT22;23627;53.302;-6.362;2023-07-09T02:34:27;15.90;99.90
37788;DHT22;23627;53.302;-6.362;2023-07-09T02:36:54;15.80;99.90
37788;DHT22;23627;53.302;-6.362;2023-07-09T02:39:20;15.80;99.90
37788;DHT22;23627;53.302;-6.362;2023-07-09T02:41:46;15.80;99.90
37788;DHT22;23627;53.302;-6.362;2023-07-09T02:44:12;15.80;99.90
37788;DHT22;23627;53.302;-6.362;2023-07-09T02:46:37;15.70;99.90
37788;DHT22;23627;53.302;-6.362;2023-07-09T02:49:04;15.70;99.90
37788;DHT22;23627;53.302;-6.362;2023-07-09T02:51:31;15.60;99.90
37788;DHT22;23627;53.302;-6.362;2023-07-09T02:54:00;15.60;99.90
37788;DHT22;23627;53.302;-6.362;2023-07-09T02:56:27;15.60;99.90
37788;DHT22;23627;53.302;-6.362;2023-07-09T02:58:53;15.50;99.90
37788;DHT22;23627;53.302;-6.362;2023-07-09T03:01:19;15.50;99.90
37788;DHT22;23627;53.302;-6.362;2023-07-09T03:03:51;15.50;99.90
37788;DHT22;23627;53.302;-6.362;2023-07-09T03:06:20;15.40;99.90
37788;DHT22;23627;53.302;-6.362;2023-07-09T03:08:46;15.40;99.90
37788;DHT22;23627;53.302;-6.362;2023-07-09T03:11:13;15.50;99.90
37788;DHT22;23627;53.302;-6.362;2023-07-09T03:13:39;15.40;99.90
37788;DHT22;23627;53.302;-6.362;2023-07-09T03:16:05;15.40;99.90
37788;DHT22;23627;53.302;-6.362;2023-07-09T03:18:31;15.30;99.90
37788;DHT22;23627;53.302;-6.362;2023-07-09T03:20:58;15.20;99.90
37788;DHT22;23627;53.302;-6.362;2023-07-09T03:23:24;15.20;99.90
37788;DHT22;23627;53.302;-6.362;2023-07-09T03:25:50;15.30;99.90
37788;DHT22;23627;53.302;-6.362;2023-07-09T03:28:16;15.30;99.90
37788;DHT22;23627;53.302;-6.362;2023-07-09T03:30:46;15.30;99.90
37788;DHT22;23627;53.302;-6.362;2023-07-09T03:33:14;15.30;99.90
37788;DHT22;23627;53.302;-6.362;2023-07-09T03:35:40;15.30;99.90
37788;DHT22;23627;53.302;-6.362;2023-07-09T03:38:07;15.30;99.90
37788;DHT22;23627;53.302;-6.362;2023-07-09T03:40:34;15.20;99.90
37788;DHT22;23627;53.302;-6.362;2023-07-09T03:43:00;15.20;99.90
37788;DHT22;23627;53.302;-6.362;2023-07-09T03:45:26;15.20;99.90
37788;DHT22;23627;53.302;-6.362;2023-07-09T03:47:52;15.20;99.90
37788;DHT22;23627;53.302;-6.362;2023-07-09T03:50:18;15.20;99.90
37788;DHT22;23627;53.302;-6.362;2023-07-09T03:52:44;15.20;99.90
37788;DHT22;23627;53.302;-6.362;2023-07-09T03:55:10;15.20;99.90
37788;DHT22;23627;53.302;-6.362;2023-07-09T03:57:36;15.20;99.90
37788;DHT22;23627;53.302;-6.362;2023-07-09T04:00:03;15.20;99.90
37788;DHT22;23627;53.302;-6.362;2023-07-09T04:02:30;15.20;99.90
37788;DHT22;23627;53.302;-6.362;2023-07-09T04:04:56;15.20;99.90
37788;DHT22;23627;53.302;-6.362;2023-07-09T04:07:22;15.20;99.90
37788;DHT22;23627;53.302;-6.362;2023-07-09T04:09:48;15.20;99.90
37788;DHT22;23627;53.302;-6.362;2023-07-09T04:12:14;15.30;99.90
37788;DHT22;23627;53.302;-6.362;2023-07-09T04:14:40;15.30;99.90
37788;DHT22;23627;53.302;-6.362;2023-07-09T04:17:06;15.30;99.90
37788;DHT22;23627;53.302;-6.362;2023-07-09T04:19:32;15.30;99.90
37788;DHT22;23627;53.302;-6.362;2023-07-09T04:21:58;15.30;99.90
37788;DHT22;23627;53.302;-6.362;2023-07-09T04:24:24;15.30;99.90
37788;DHT22;23627;53.302;-6.362;2023-07-09T04:26:49;15.30;99.90
37788;DHT22;23627;53.302;-6.362;2023-07-09T04:29:23;15.30;99.90
37788;DHT22;23627;53.302;-6.362;2023-07-09T04:31:48;15.20;99.90
37788;DHT22;23627;53.302;-6.362;2023-07-09T04:34:14;15.30;99.90
37788;DHT22;23627;53.302;-6.362;2023-07-09T04:36:40;15.30;99.90
37788;DHT22;23627;53.302;-6.362;2023-07-09T04:39:06;15.30;99.90
37788;DHT22;23627;53.302;-6.362;2023-07-09T04:41:32;15.30;99.90
37788;DHT22;23627;53.302;-6.362;2023-07-09T04:43:58;15.40;99.90
37788;DHT22;23627;53.302;-6.362;2023-07-09T04:46:24;15.50;99.90
37788;DHT22;23627;53.302;-6.362;2023-07-09T04:48:50;15.60;99.90
37788;DHT22;23627;53.302;-6.362;2023-07-09T04:51:16;15.70;99.90
37788;DHT22;23627;53.302;-6.362;2023-07-09T04:53:42;15.80;99.90
37788;DHT22;23627;53.302;-6.362;2023-07-09T04:56:08;15.90;99.90
37788;DHT22;23627;53.302;-6.362;2023-07-09T04:58:35;15.90;99.90
37788;DHT22;23627;53.302;-6.362;2023-07-09T05:01:01;16.00;99.90
37788;DHT22;23627;53.302;-6.362;2023-07-09T05:03:27;16.00;99.90
37788;DHT22;23627;53.302;-6.362;2023-07-09T05:05:53;16.10;99.90
37788;DHT22;23627;53.302;-6.362;2023-07-09T05:08:18;16.20;99.90
37788;DHT22;23627;53.302;-6.362;2023-07-09T05:10:46;16.20;99.90
37788;DHT22;23627;53.302;-6.362;2023-07-09T05:13:12;16.30;99.90
37788;DHT22;23627;53.302;-6.362;2023-07-09T05:15:44;16.30;99.90
37788;DHT22;23627;53.302;-6.362;2023-07-09T05:18:11;16.40;99.90
37788;DHT22;23627;53.302;-6.362;2023-07-09T05:20:37;16.40;99.90
37788;DHT22;23627;53.302;-6.362;2023-07-09T05:23:03;16.50;99.90
37788;DHT22;23627;53.302;-6.362;2023-07-09T05:25:29;16.50;99.90
37788;DHT22;23627;53.302;-6.362;2023-07-09T05:27:55;16.50;99.90
37788;DHT22;23627;53.302;-6.362;2023-07-09T05:30:21;16.60;99.90
37788;DHT22;23627;53.302;-6.362;2023-07-09T05:32:47;16.60;99.90
37788;DHT22;23627;53.302;-6.362;2023-07-09T05:35:13;16.60;99.90
37788;DHT22;23627;53.302;-6.362;2023-07-09T05:37:39;16.70;99.90
37788;DHT22;23627;53.302;-6.362;2023-07-09T05:40:06;16.70;99.90
37788;DHT22;23627;53.302;-6.362;2023-07-09T05:42:33;16.80;99.90
37788;DHT22;23627;53.302;-6.362;2023-07-09T05:44:59;16.90;99.90
37788;DHT22;23627;53.302;-6.362;2023-07-09T05:47:28;17.00;99.90
37788;DHT22;23627;53.302;-6.362;2023-07-09T05:50:03;17.10;99.90
37788;DHT22;23627;53.302;-6.362;2023-07-09T05:52:29;17.20;99.90
37788;DHT22;23627;53.302;-6.362;2023-07-09T05:54:56;17.30;99.90
37788;DHT22;23627;53.302;-6.362;2023-07-09T05:57:23;17.40;99.90
37788;DHT22;23627;53.302;-6.362;2023-07-09T05:59:51;17.50;99.90
37788;DHT22;23627;53.302;-6.362;2023-07-09T06:02:20;17.60;99.90
37788;DHT22;23627;53.302;-6.362;2023-07-09T06:04:47;17.60;99.90
37788;DHT22;23627;53.302;-6.362;2023-07-09T06:07:16;17.80;99.90
37788;DHT22;23627;53.302;-6.362;2023-07-09T06:09:42;17.80;99.90
37788;DHT22;23627;53.302;-6.362;2023-07-09T06:12:13;17.80;99.90
37788;DHT22;23627;53.302;-6.362;2023-07-09T06:15:03;17.90;99.90
37788;DHT22;23627;53.302;-6.362;2023-07-09T06:42:58;17.60;99.90
37788;DHT22;23627;53.302;-6.362;2023-07-09T06:45:25;17.70;99.90
37788;DHT22;23627;53.302;-6.362;2023-07-09T06:47:59;17.70;99.90
37788;DHT22;23627;53.302;-6.362;2023-07-09T06:50:26;17.70;99.90
37788;DHT22;23627;53.302;-6.362;2023-07-09T06:58:05;17.90;99.90
37788;DHT22;23627;53.302;-6.362;2023-07-09T07:00:42;17.90;99.90
37788;DHT22;23627;53.302;-6.362;2023-07-09T07:03:10;18.10;99.90
37788;DHT22;23627;53.302;-6.362;2023-07-09T07:05:37;18.10;99.90
37788;DHT22;23627;53.302;-6.362;2023-07-09T07:08:08;18.10;99.90
37788;DHT22;23627;53.302;-6.362;2023-07-09T07:10:34;18.20;99.90
37788;DHT22;23627;53.302;-6.362;2023-07-09T07:13:00;18.10;99.90
37788;DHT22;23627;53.302;-6.362;2023-07-09T07:15:26;18.10;99.90
37788;DHT22;23627;53.302;-6.362;2023-07-09T07:17:51;18.20;99.90
37788;DHT22;23627;53.302;-6.362;2023-07-09T07:20:18;18.20;99.90
37788;DHT22;23627;53.302;-6.362;2023-07-09T07:22:43;18.10;99.90
37788;DHT22;23627;53.302;-6.362;2023-07-09T07:25:10;18.20;99.90
37788;DHT22;23627;53.302;-6.362;2023-07-09T07:27:36;18.10;99.90
37788;DHT22;23627;53.302;-6.362;2023-07-09T07:30:03;18.10;99.90
37788;DHT22;23627;53.302;-6.362;2023-07-09T07:32:29;18.10;99.90
37788;DHT22;23627;53.302;-6.362;2023-07-09T07:34:55;18.20;99.90
37788;DHT22;23627;53.302;-6.362;2023-07-09T07:37:21;18.10;99.90
37788;DHT22;23627;53.302;-6.362;2023-07-09T07:39:48;18.20;99.90
37788;DHT22;23627;53.302;-6.362;2023-07-09T07:42:14;18.20;99.90
37788;DHT22;23627;53.302;-6.362;2023-07-09T07:44:40;18.20;99.90
37788;DHT22;23627;53.302;-6.362;2023-07-09T07:47:06;18.20;99.90
37788;DHT22;23627;53.302;-6.362;2023-07-09T07:49:32;18.10;99.90
37788;DHT22;23627;53.302;-6.362;2023-07-09T07:51:57;18.10;99.90
37788;DHT22;23627;53.302;-6.362;2023-07-09T07:54:24;18.10;99.90
37788;DHT22;23627;53.302;-6.362;2023-07-09T07:56:50;18.00;99.90
37788;DHT22;23627;53.302;-6.362;2023-07-09T07:59:17;18.10;99.90
37788;DHT22;23627;53.302;-6.362;2023-07-09T08:01:43;18.20;99.90
37788;DHT22;23627;53.302;-6.362;2023-07-09T08:04:09;18.30;99.90
37788;DHT22;23627;53.302;-6.362;2023-07-09T08:06:34;18.50;99.90
37788;DHT22;23627;53.302;-6.362;2023-07-09T08:09:01;18.70;99.90
37788;DHT22;23627;53.302;-6.362;2023-07-09T08:11:27;18.90;99.90
37788;DHT22;23627;53.302;-6.362;2023-07-09T08:13:55;19.10;99.90
37788;DHT22;23627;53.302;-6.362;2023-07-09T08:16:21;19.30;99.90
37788;DHT22;23627;53.302;-6.362;2023-07-09T08:18:46;19.30;99.90
37788;DHT22;23627;53.302;-6.362;2023-07-09T08:21:12;19.40;99.90
37788;DHT22;23627;53.302;-6.362;2023-07-09T08:23:39;19.40;99.90
37788;DHT22;23627;53.302;-6.362;2023-07-09T08:26:05;19.30;99.90
37788;DHT22;23627;53.302;-6.362;2023-07-09T08:28:31;19.20;99.90
37788;DHT22;23627;53.302;-6.362;2023-07-09T08:30:57;19.00;99.90
37788;DHT22;23627;53.302;-6.362;2023-07-09T08:33:23;18.90;99.90
37788;DHT22;23627;53.302;-6.362;2023-07-09T08:35:51;18.80;99.90
37788;DHT22;23627;53.302;-6.362;2023-07-09T08:38:17;18.60;99.90
37788;DHT22;23627;53.302;-6.362;2023-07-09T08:41:08;18.50;99.90
37788;DHT22;23627;53.302;-6.362;2023-07-09T08:46:24;18.30;99.90
37788;DHT22;23627;53.302;-6.362;2023-07-09T08:48:52;18.10;99.90
37788;DHT22;23627;53.302;-6.362;2023-07-09T08:51:28;17.90;99.90
37788;DHT22;23627;53.302;-6.362;2023-07-09T08:53:58;17.80;99.90
37788;DHT22;23627;53.302;-6.362;2023-07-09T08:56:26;17.80;99.90
37788;DHT22;23627;53.302;-6.362;2023-07-09T08:58:54;18.00;99.90
37788;DHT22;23627;53.302;-6.362;2023-07-09T09:01:24;18.30;99.90
37788;DHT22;23627;53.302;-6.362;2023-07-09T09:04:02;18.50;99.90
37788;DHT22;23627;53.302;-6.362;2023-07-09T09:06:31;19.00;99.90
37788;DHT22;23627;53.302;-6.362;2023-07-09T09:09:38;19.10;99.90
37788;DHT22;23627;53.302;-6.362;2023-07-09T09:12:29;18.90;99.90
37788;DHT22;23627;53.302;-6.362;2023-07-09T09:15:08;19.00;99.90
37788;DHT22;23627;53.302;-6.362;2023-07-09T09:17:38;18.90;99.90
37788;DHT22;23627;53.302;-6.362;2023-07-09T09:20:19;18.80;99.90
37788;DHT22;23627;53.302;-6.362;2023-07-09T09:22:57;18.60;99.90
37788;DHT22;23627;53.302;-6.362;2023-07-09T09:25:27;18.60;99.90
37788;DHT22;23627;53.302;-6.362;2023-07-09T09:27:54;18.50;99.90
37788;DHT22;23627;53.302;-6.362;2023-07-09T09:30:22;18.50;99.90
37788;DHT22;23627;53.302;-6.362;2023-07-09T09:32:54;18.50;99.90
37788;DHT22;23627;53.302;-6.362;2023-07-09T09:36:01;18.50;99.90
37788;DHT22;23627;53.302;-6.362;2023-07-09T09:38:20;18.50;99.90
37788;DHT22;23627;53.302;-6.362;2023-07-09T09:40:47;18.40;99.90
37788;DHT22;23627;53.302;-6.362;2023-07-09T09:43:19;18.60;99.90
37788;DHT22;23627;53.302;-6.362;2023-07-09T09:45:48;19.00;99.90
37788;DHT22;23627;53.302;-6.362;2023-07-09T09:48:16;19.10;99.90
37788;DHT22;23627;53.302;-6.362;2023-07-09T09:50:43;19.10;99.90
37788;DHT22;23627;53.302;-6.362;2023-07-09T09:53:22;19.30;99.90
37788;DHT22;23627;53.302;-6.362;2023-07-09T09:55:50;19.50;99.90
37788;DHT22;23627;53.302;-6.362;2023-07-09T09:58:18;19.70;99.90
37788;DHT22;23627;53.302;-6.362;2023-07-09T10:00:51;19.80;99.90
37788;DHT22;23627;53.302;-6.362;2023-07-09T10:03:17;19.70;99.90
37788;DHT22;23627;53.302;-6.362;2023-07-09T10:05:57;19.60;99.90
37788;DHT22;23627;53.302;-6.362;2023-07-09T10:11:28;19.60;99.90
37788;DHT22;23627;53.302;-6.362;2023-07-09T10:14:00;19.50;99.90
37788;DHT22;23627;53.302;-6.362;2023-07-09T10:16:40;19.70;99.90
37788;DHT22;23627;53.302;-6.362;2023-07-09T10:19:47;19.90;99.90
37788;DHT22;23627;53.302;-6.362;2023-07-09T10:22:20;20.20;99.90
37788;DHT22;23627;53.302;-6.362;2023-07-09T10:25:01;20.20;99.90
37788;DHT22;23627;53.302;-6.362;2023-07-09T10:28:04;20.40;99.90
37788;DHT22;23627;53.302;-6.362;2023-07-09T10:34:00;20.60;99.90
37788;DHT22;23627;53.302;-6.362;2023-07-09T10:36:45;20.80;99.90
37788;DHT22;23627;53.302;-6.362;2023-07-09T10:41:57;21.30;99.90
37788;DHT22;23627;53.302;-6.362;2023-07-09T10:44:36;21.40;99.90
37788;DHT22;23627;53.302;-6.362;2023-07-09T10:47:09;21.60;99.90
37788;DHT22;23627;53.302;-6.362;2023-07-09T10:49:40;21.60;99.90
37788;DHT22;23627;53.302;-6.362;2023-07-09T10:52:28;21.50;99.90
37788;DHT22;23627;53.302;-6.362;2023-07-09T11:00:18;21.40;99.90
37788;DHT22;23627;53.302;-6.362;2023-07-09T11:02:46;21.20;99.90
37788;DHT22;23627;53.302;-6.362;2023-07-09T11:05:13;21.10;99.90
37788;DHT22;23627;53.302;-6.362;2023-07-09T11:10:52;20.80;99.90
37788;DHT22;23627;53.302;-6.362;2023-07-09T11:13:43;20.80;99.90
37788;DHT22;23627;53.302;-6.362;2023-07-09T11:16:15;20.80;99.90
37788;DHT22;23627;53.302;-6.362;2023-07-09T11:18:56;20.80;99.90
37788;DHT22;23627;53.302;-6.362;2023-07-09T11:21:22;20.70;99.90
37788;DHT22;23627;53.302;-6.362;2023-07-09T11:23:56;20.50;99.90
37788;DHT22;23627;53.302;-6.362;2023-07-09T11:26:34;20.30;99.90
37788;DHT22;23627;53.302;-6.362;2023-07-09T11:31:40;20.00;99.90
37788;DHT22;23627;53.302;-6.362;2023-07-09T11:36:59;20.00;99.90
37788;DHT22;23627;53.302;-6.362;2023-07-09T11:39:46;20.20;99.90
37788;DHT22;23627;53.302;-6.362;2023-07-09T11:42:33;20.40;99.90
37788;DHT22;23627;53.302;-6.362;2023-07-09T11:45:04;20.70;99.90
37788;DHT22;23627;53.302;-6.362;2023-07-09T11:47:33;21.00;99.90
37788;DHT22;23627;53.302;-6.362;2023-07-09T11:50:28;21.10;99.90
37788;DHT22;23627;53.302;-6.362;2023-07-09T11:53:15;21.10;99.90
37788;DHT22;23627;53.302;-6.362;2023-07-09T11:55:45;21.00;99.90
37788;DHT22;23627;53.302;-6.362;2023-07-09T11:58:17;21.00;99.90
37788;DHT22;23627;53.302;-6.362;2023-07-09T12:00:47;21.20;99.90
37788;DHT22;23627;53.302;-6.362;2023-07-09T12:03:34;21.30;99.90
37788;DHT22;23627;53.302;-6.362;2023-07-09T12:06:07;21.40;99.90
37788;DHT22;23627;53.302;-6.362;2023-07-09T12:08:41;21.50;99.90
37788;DHT22;23627;53.302;-6.362;2023-07-09T12:11:22;21.50;99.90
37788;DHT22;23627;53.302;-6.362;2023-07-09T12:13:49;21.60;99.90
37788;DHT22;23627;53.302;-6.362;2023-07-09T12:16:24;21.70;99.90
37788;DHT22;23627;53.302;-6.362;2023-07-09T12:18:52;21.80;99.90
37788;DHT22;23627;53.302;-6.362;2023-07-09T12:21:22;21.80;99.90
37788;DHT22;23627;53.302;-6.362;2023-07-09T12:23:50;21.90;99.90
37788;DHT22;23627;53.302;-6.362;2023-07-09T12:26:17;21.90;99.90
37788;DHT22;23627;53.302;-6.362;2023-07-09T12:28:53;22.00;99.90
37788;DHT22;23627;53.302;-6.362;2023-07-09T12:31:26;22.00;99.90
37788;DHT22;23627;53.302;-6.362;2023-07-09T12:33:54;22.10;99.90
37788;DHT22;23627;53.302;-6.362;2023-07-09T12:36:20;22.10;99.90
37788;DHT22;23627;53.302;-6.362;2023-07-09T12:38:52;22.20;99.90
37788;DHT22;23627;53.302;-6.362;2023-07-09T12:41:41;22.20;99.90
37788;DHT22;23627;53.302;-6.362;2023-07-09T12:44:21;22.40;99.90
37788;DHT22;23627;53.302;-6.362;2023-07-09T12:46:50;22.40;99.90
37788;DHT22;23627;53.302;-6.362;2023-07-09T12:49:36;22.50;99.90
37788;DHT22;23627;53.302;-6.362;2023-07-09T12:52:17;22.50;99.90
37788;DHT22;23627;53.302;-6.362;2023-07-09T12:54:52;22.50;99.90
37788;DHT22;23627;53.302;-6.362;2023-07-09T12:57:28;22.50;99.90
37788;DHT22;23627;53.302;-6.362;2023-07-09T13:08:02;22.80;99.90
37788;DHT22;23627;53.302;-6.362;2023-07-09T13:13:29;23.00;99.90
37788;DHT22;23627;53.302;-6.362;2023-07-09T13:21:16;23.10;99.90
37788;DHT22;23627;53.302;-6.362;2023-07-09T13:23:41;23.10;99.90
37788;DHT22;23627;53.302;-6.362;2023-07-09T13:26:08;23.10;99.90
37788;DHT22;23627;53.302;-6.362;2023-07-09T13:28:34;23.10;99.90
37788;DHT22;23627;53.302;-6.362;2023-07-09T13:31:15;23.20;99.90
37788;DHT22;23627;53.302;-6.362;2023-07-09T13:33:50;23.30;99.90
37788;DHT22;23627;53.302;-6.362;2023-07-09T13:36:17;23.40;99.90
37788;DHT22;23627;53.302;-6.362;2023-07-09T13:38:43;23.40;99.90
37788;DHT22;23627;53.302;-6.362;2023-07-09T13:41:14;23.20;99.90
37788;DHT22;23627;53.302;-6.362;2023-07-09T13:43:43;23.20;99.90
37788;DHT22;23627;53.302;-6.362;2023-07-09T13:46:09;23.10;99.90
37788;DHT22;23627;53.302;-6.362;2023-07-09T13:48:37;23.00;99.90
37788;DHT22;23627;53.302;-6.362;2023-07-09T13:51:19;22.90;99.90
37788;DHT22;23627;53.302;-6.362;2023-07-09T13:53:46;22.70;99.90
37788;DHT22;23627;53.302;-6.362;2023-07-09T13:56:12;22.80;99.90
37788;DHT22;23627;53.302;-6.362;2023-07-09T13:58:37;22.90;99.90
37788;DHT22;23627;53.302;-6.362;2023-07-09T14:01:17;23.10;99.90
37788;DHT22;23627;53.302;-6.362;2023-07-09T14:03:44;23.10;99.90
37788;DHT22;23627;53.302;-6.362;2023-07-09T14:06:14;22.90;99.90
37788;DHT22;23627;53.302;-6.362;2023-07-09T14:08:40;22.90;99.90
37788;DHT22;23627;53.302;-6.362;2023-07-09T14:11:14;22.90;99.90
37788;DHT22;23627;53.302;-6.362;2023-07-09T14:13:41;23.00;99.90
37788;DHT22;23627;53.302;-6.362;2023-07-09T14:16:16;23.20;99.90
37788;DHT22;23627;53.302;-6.362;2023-07-09T14:18:42;23.20;99.90
37788;DHT22;23627;53.302;-6.362;2023-07-09T14:21:22;23.10;99.90
37788;DHT22;23627;53.302;-6.362;2023-07-09T14:23:49;23.00;99.90
37788;DHT22;23627;53.302;-6.362;2023-07-09T14:26:15;22.90;99.90
37788;DHT22;23627;53.302;-6.362;2023-07-09T14:28:40;22.90;99.90
37788;DHT22;23627;53.302;-6.362;2023-07-09T14:31:33;23.00;99.90
37788;DHT22;23627;53.302;-6.362;2023-07-09T14:34:24;23.20;99.90
37788;DHT22;23627;53.302;-6.362;2023-07-09T14:36:54;23.30;99.90
37788;DHT22;23627;53.302;-6.362;2023-07-09T14:39:20;23.30;99.90
37788;DHT22;23627;53.302;-6.362;2023-07-09T14:41:46;23.20;99.90
37788;DHT22;23627;53.302;-6.362;2023-07-09T14:44:30;23.10;99.90
37788;DHT22;23627;53.302;-6.362;2023-07-09T14:49:53;22.80;99.90
37788;DHT22;23627;53.302;-6.362;2023-07-09T14:52:20;22.60;99.90
37788;DHT22;23627;53.302;-6.362;2023-07-09T14:54:49;22.60;99.90
37788;DHT22;23627;53.302;-6.362;2023-07-09T14:57:25;22.50;99.90
37788;DHT22;23627;53.302;-6.362;2023-07-09T14:59:53;22.40;99.90
37788;DHT22;23627;53.302;-6.362;2023-07-09T15:02:40;22.50;99.90
37788;DHT22;23627;53.302;-6.362;2023-07-09T15:05:19;22.50;99.90
37788;DHT22;23627;53.302;-6.362;2023-07-09T15:07:47;22.70;99.90
37788;DHT22;23627;53.302;-6.362;2023-07-09T15:10:24;22.80;99.90
37788;DHT22;23627;53.302;-6.362;2023-07-09T15:12:52;23.10;99.90
37788;DHT22;23627;53.302;-6.362;2023-07-09T15:15:29;23.20;99.90
37788;DHT22;23627;53.302;-6.362;2023-07-09T15:17:57;23.10;99.90
37788;DHT22;23627;53.302;-6.362;2023-07-09T15:20:26;23.10;99.90
37788;DHT22;23627;53.302;-6.362;2023-07-09T15:22:56;23.10;99.90
37788;DHT22;23627;53.302;-6.362;2023-07-09T15:25:24;23.10;99.90
37788;DHT22;23627;53.302;-6.362;2023-07-09T15:27:51;23.10;99.90
37788;DHT22;23627;53.302;-6.362;2023-07-09T15:30:20;23.00;99.90
37788;DHT22;23627;53.302;-6.362;2023-07-09T15:32:59;22.90;99.90
37788;DHT22;23627;53.302;-6.362;2023-07-09T15:35:31;22.90;99.90
37788;DHT22;23627;53.302;-6.362;2023-07-09T15:37:58;22.70;99.90
37788;DHT22;23627;53.302;-6.362;2023-07-09T15:40:28;22.80;99.90
37788;DHT22;23627;53.302;-6.362;2023-07-09T15:43:05;22.60;99.90
37788;DHT22;23627;53.302;-6.362;2023-07-09T15:45:39;22.60;99.90
37788;DHT22;23627;53.302;-6.362;2023-07-09T15:48:09;22.60;99.90
37788;DHT22;23627;53.302;-6.362;2023-07-09T15:50:38;22.60;99.90
37788;DHT22;23627;53.302;-6.362;2023-07-09T15:53:07;22.70;99.90
37788;DHT22;23627;53.302;-6.362;2023-07-09T15:55:35;22.70;99.90
37788;DHT22;23627;53.302;-6.362;2023-07-09T15:58:01;22.70;99.90
37788;DHT22;23627;53.302;-6.362;2023-07-09T16:00:28;22.80;99.90
37788;DHT22;23627;53.302;-6.362;2023-07-09T16:02:55;22.80;99.90
37788;DHT22;23627;53.302;-6.362;2023-07-09T16:05:28;22.90;99.90
37788;DHT22;23627;53.302;-6.362;2023-07-09T16:07:56;22.80;99.90
37788;DHT22;23627;53.302;-6.362;2023-07-09T16:10:24;22.80;99.90
37788;DHT22;23627;53.302;-6.362;2023-07-09T16:12:51;22.80;99.90
37788;DHT22;23627;53.302;-6.362;2023-07-09T16:15:19;22.80;99.90
37788;DHT22;23627;53.302;-6.362;2023-07-09T16:17:46;22.70;99.90
37788;DHT22;23627;53.302;-6.362;2023-07-09T16:20:14;22.50;99.90
37788;DHT22;23627;53.302;-6.362;2023-07-09T16:22:42;22.50;99.90
37788;DHT22;23627;53.302;-6.362;2023-07-09T16:25:21;22.50;99.90
37788;DHT22;23627;53.302;-6.362;2023-07-09T16:27:48;22.50;99.90
37788;DHT22;23627;53.302;-6.362;2023-07-09T16:30:17;22.50;99.90
37788;DHT22;23627;53.302;-6.362;2023-07-09T16:32:44;22.50;99.90
37788;DHT22;23627;53.302;-6.362;2023-07-09T16:35:19;22.50;99.90
37788;DHT22;23627;53.302;-6.362;2023-07-09T16:37:46;22.50;99.90
37788;DHT22;23627;53.302;-6.362;2023-07-09T16:40:26;22.40;99.90
37788;DHT22;23627;53.302;-6.362;2023-07-09T16:42:53;22.40;99.90
37788;DHT22;23627;53.302;-6.362;2023-07-09T16:45:20;22.40;99.90
37788;DHT22;23627;53.302;-6.362;2023-07-09T16:47:48;22.20;99.90
37788;DHT22;23627;53.302;-6.362;2023-07-09T16:50:20;22.20;99.90
37788;DHT22;23627;53.302;-6.362;2023-07-09T16:52:47;22.10;99.90
37788;DHT22;23627;53.302;-6.362;2023-07-09T16:55:15;22.10;99.90
37788;DHT22;23627;53.302;-6.362;2023-07-09T16:57:42;21.90;99.90